Time;durP1;ratioP1;P1;durP2;ratioP2;P2;SDS_P1;SDS_P2;PMS_P1;PMS_P2;Temp;Humidity;BMP_temperature;BMP_pressure;BME280_temperature;BME280_humidity;BME280_pressure;Samples;Min_cycle;Max_cycle;Signal;HPM_P1;HPM_P2
2022/03/05 00:00:53;;;;;;;26.80;11.97;;;3.50;67.50;;;;;;5035744;28;20059;-80
2022/03/05 00:03:19;;;;;;;34.00;13.83;;;3.40;68.00;;;;;;5035879;28;20056;-81
2022/03/05 00:05:45;;;;;;;27.13;11.93;;;3.40;68.70;;;;;;5035643;28;20158;-80
2022/03/05 00:08:11;;;;;;;27.90;12.03;;;3.40;68.30;;;;;;5042541;28;20041;-80
2022/03/05 00:10:37;;;;;;;27.77;12.03;;;3.50;68.50;;;;;;5034282;28;20033;-80
2022/03/05 00:13:04;;;;;;;29.90;12.70;;;3.40;68.60;;;;;;5034283;28;20025;-80
2022/03/05 00:15:30;;;;;;;29.87;11.53;;;3.30;68.50;;;;;;5034320;28;20021;-80
2022/03/05 00:17:56;;;;;;;24.83;10.87;;;3.30;68.70;;;;;;5049528;28;20158;-80
2022/03/05 00:20:23;;;;;;;26.17;10.90;;;3.30;68.70;;;;;;5037467;28;20378;-80
2022/03/05 00:22:52;;;;;;;25.70;11.20;;;3.20;68.40;;;;;;5054201;28;20033;-81
2022/03/05 00:25:24;;;;;;;24.10;10.53;;;3.20;68.60;;;;;;5054005;28;20032;-80
2022/03/05 00:27:51;;;;;;;24.97;10.97;;;3.20;68.70;;;;;;5053321;28;20071;-81
2022/03/05 00:30:16;;;;;;;29.93;12.43;;;3.20;68.60;;;;;;5053936;28;20033;-80
2022/03/05 00:32:43;;;;;;;29.93;12.17;;;3.10;69.10;;;;;;5053882;28;20504;-80
2022/03/05 00:35:10;;;;;;;28.17;12.47;;;3.10;69.10;;;;;;5055060;28;20131;-80
2022/03/05 00:37:36;;;;;;;25.33;11.53;;;3.00;68.90;;;;;;5038175;28;20032;-80
2022/03/05 00:40:02;;;;;;;26.73;11.80;;;3.00;69.20;;;;;;5035022;28;20477;-80
2022/03/05 00:42:28;;;;;;;27.00;11.93;;;3.00;69.10;;;;;;5034985;28;20037;-80
2022/03/05 00:44:54;;;;;;;29.03;12.90;;;2.90;69.30;;;;;;5033873;28;20029;-79
2022/03/05 00:47:21;;;;;;;30.33;13.67;;;2.90;70.10;;;;;;5047924;28;20049;-81
2022/03/05 00:49:46;;;;;;;26.47;12.43;;;2.90;70.10;;;;;;5037133;28;20554;-80
2022/03/05 00:52:12;;;;;;;30.23;12.27;;;2.80;69.70;;;;;;5053380;28;20436;-80
2022/03/05 00:54:38;;;;;;;26.00;11.80;;;2.80;69.80;;;;;;5036861;28;20029;-80
2022/03/05 00:57:03;;;;;;;29.70;12.67;;;2.80;69.50;;;;;;5033330;28;20087;-80
2022/03/05 00:59:29;;;;;;;25.53;11.93;;;2.80;70.10;;;;;;5033703;28;20041;-80
2022/03/05 01:01:55;;;;;;;27.57;12.13;;;2.80;70.50;;;;;;5033438;28;20026;-80
2022/03/05 01:04:21;;;;;;;33.60;13.27;;;2.70;69.90;;;;;;5033383;28;20087;-80
2022/03/05 01:06:46;;;;;;;34.13;13.67;;;2.70;69.90;;;;;;5023031;28;20481;-80
2022/03/05 01:09:12;;;;;;;28.43;12.73;;;2.60;69.80;;;;;;5034520;28;20059;-80
2022/03/05 01:11:38;;;;;;;31.50;12.30;;;2.60;70.00;;;;;;5034597;28;20037;-80
2022/03/05 01:14:04;;;;;;;30.67;12.93;;;2.60;69.90;;;;;;5033293;28;20079;-80
2022/03/05 01:16:30;;;;;;;26.50;12.07;;;2.60;70.50;;;;;;5044356;28;20039;-80
2022/03/05 01:18:56;;;;;;;28.33;12.33;;;2.60;70.20;;;;;;5036481;28;20029;-80
2022/03/05 01:21:21;;;;;;;29.23;12.37;;;2.60;70.20;;;;;;5036294;28;20030;-80
2022/03/05 01:23:47;;;;;;;31.07;12.93;;;2.50;70.20;;;;;;5054161;28;20029;-80
2022/03/05 01:26:12;;;;;;;31.57;12.73;;;2.40;70.40;;;;;;5032731;28;20405;-80
2022/03/05 01:28:38;;;;;;;30.70;13.10;;;2.40;70.50;;;;;;5034124;28;20026;-80
2022/03/05 01:31:04;;;;;;;33.57;12.87;;;2.50;71.10;;;;;;5032922;28;20033;-80
2022/03/05 01:33:30;;;;;;;26.50;11.80;;;2.30;70.40;;;;;;5016360;28;20494;-80
2022/03/05 01:35:55;;;;;;;30.63;12.43;;;2.30;70.60;;;;;;5041289;28;20469;-80
2022/03/05 01:38:21;;;;;;;29.53;13.43;;;2.30;70.80;;;;;;5052710;28;20033;-81
2022/03/05 01:40:47;;;;;;;30.30;12.60;;;2.30;71.00;;;;;;5052424;28;20521;-80
2022/03/05 01:43:13;;;;;;;28.43;12.97;;;2.20;70.80;;;;;;5052537;28;20029;-80
2022/03/05 01:45:40;;;;;;;32.67;13.03;;;2.20;70.80;;;;;;5048478;28;20452;-80
2022/03/05 01:48:06;;;;;;;29.40;14.33;;;2.20;70.80;;;;;;5033847;28;20025;-80
2022/03/05 01:50:32;;;;;;;30.90;12.47;;;2.10;70.80;;;;;;5032432;28;20018;-80
2022/03/05 01:52:58;;;;;;;29.67;12.70;;;2.10;70.90;;;;;;5033643;28;20377;-80
2022/03/05 01:55:24;;;;;;;32.43;13.77;;;2.10;71.20;;;;;;5033832;28;20044;-81
2022/03/05 01:57:50;;;;;;;36.50;12.73;;;2.00;70.90;;;;;;5033653;28;20030;-80
2022/03/05 02:00:17;;;;;;;32.33;13.33;;;2.00;71.00;;;;;;5032331;28;20056;-81
2022/03/05 02:02:43;;;;;;;26.87;11.80;;;2.00;71.30;;;;;;5033628;28;20112;-81
2022/03/05 02:05:10;;;;;;;33.63;15.50;;;2.00;71.30;;;;;;5035298;28;20021;-80
2022/03/05 02:07:36;;;;;;;33.23;13.97;;;1.90;71.80;;;;;;5035656;28;20021;-81
2022/03/05 02:10:03;;;;;;;33.60;13.00;;;1.90;71.70;;;;;;5053392;28;20078;-81
2022/03/05 02:12:30;;;;;;;29.00;12.90;;;1.90;71.60;;;;;;5053213;28;20025;-81
2022/03/05 02:14:58;;;;;;;29.30;12.60;;;1.80;71.50;;;;;;5049488;28;20079;-81
2022/03/05 02:17:24;;;;;;;29.63;13.23;;;1.80;71.90;;;;;;5033355;28;20033;-81
2022/03/05 02:19:50;;;;;;;35.20;13.30;;;1.80;72.30;;;;;;5032117;28;20033;-81
2022/03/05 02:22:16;;;;;;;28.83;12.60;;;1.80;72.10;;;;;;5033251;28;20528;-80
2022/03/05 02:24:42;;;;;;;33.93;14.10;;;1.80;71.90;;;;;;5026350;28;20026;-81
2022/03/05 02:27:08;;;;;;;31.83;13.77;;;1.70;71.90;;;;;;5032727;28;20587;-80
2022/03/05 02:29:34;;;;;;;33.53;13.97;;;1.70;72.20;;;;;;5032062;28;20053;-81
2022/03/05 02:32:01;;;;;;;35.30;14.60;;;1.70;72.30;;;;;;5030341;28;20022;-81
2022/03/05 02:34:28;;;;;;;32.73;12.70;;;1.70;72.70;;;;;;5044574;28;20047;-80
2022/03/05 02:36:54;;;;;;;30.50;13.00;;;1.70;72.10;;;;;;5051625;28;20040;-81
2022/03/05 02:39:24;;;;;;;33.00;13.40;;;1.60;72.10;;;;;;5052272;28;20034;-81
2022/03/05 02:41:50;;;;;;;31.27;13.63;;;1.60;72.40;;;;;;5051285;28;20036;-81
2022/03/05 02:44:15;;;;;;;31.90;13.70;;;1.60;72.40;;;;;;5042327;28;20021;-81
2022/03/05 02:46:41;;;;;;;30.33;13.63;;;1.60;72.50;;;;;;5031669;28;20521;-81
2022/03/05 02:49:07;;;;;;;32.97;12.77;;;1.50;72.40;;;;;;5032978;28;20052;-80
2022/03/05 02:51:32;;;;;;;29.83;12.87;;;1.50;72.40;;;;;;5031734;28;20084;-80
2022/03/05 02:53:58;;;;;;;32.03;13.57;;;1.50;72.60;;;;;;5043193;28;20033;-81
2022/03/05 02:56:24;;;;;;;34.97;14.10;;;1.50;72.80;;;;;;5035096;28;20033;-80
2022/03/05 02:58:49;;;;;;;36.87;15.00;;;1.50;73.00;;;;;;5049936;28;20315;-80
2022/03/05 03:01:15;;;;;;;35.63;14.27;;;1.50;73.00;;;;;;5035028;28;20033;-81
2022/03/05 03:03:41;;;;;;;36.83;14.47;;;1.40;72.90;;;;;;5043745;28;20044;-81
2022/03/05 03:06:07;;;;;;;37.77;15.33;;;1.40;73.00;;;;;;5031514;28;20071;-81
2022/03/05 03:08:32;;;;;;;35.90;13.53;;;1.40;73.10;;;;;;5032948;28;20056;-81
2022/03/05 03:10:58;;;;;;;34.67;12.93;;;1.40;73.10;;;;;;5015162;28;20030;-81
2022/03/05 03:13:24;;;;;;;38.40;15.83;;;1.30;73.20;;;;;;5038924;28;20037;-81
2022/03/05 03:15:50;;;;;;;38.80;15.37;;;1.30;73.40;;;;;;5052311;28;20067;-81
2022/03/05 03:18:19;;;;;;;36.93;14.53;;;1.30;73.50;;;;;;5038534;28;20106;-81
2022/03/05 03:20:45;;;;;;;35.00;14.97;;;1.30;73.60;;;;;;5055480;28;20043;-81
2022/03/05 03:23:11;;;;;;;37.63;14.93;;;1.20;73.90;;;;;;5049686;28;20061;-80
2022/03/05 03:25:39;;;;;;;36.83;15.87;;;1.20;73.80;;;;;;5024878;28;20045;-81
2022/03/05 03:28:06;;;;;;;34.23;15.00;;;1.20;73.70;;;;;;5036421;28;20072;-81
2022/03/05 03:30:32;;;;;;;35.17;15.17;;;1.20;74.10;;;;;;5036419;28;20044;-81
2022/03/05 03:32:58;;;;;;;35.27;14.40;;;1.20;74.30;;;;;;5042153;28;20473;-80
2022/03/05 03:35:23;;;;;;;36.87;14.73;;;1.20;74.30;;;;;;5038242;28;20025;-81
2022/03/05 03:37:49;;;;;;;37.93;15.60;;;1.10;74.40;;;;;;5038272;28;20027;-80
2022/03/05 03:40:17;;;;;;;38.57;16.73;;;1.10;74.30;;;;;;5054603;28;20021;-81
2022/03/05 03:42:45;;;;;;;38.00;13.97;;;1.10;74.40;;;;;;5054463;28;20059;-81
2022/03/05 03:45:11;;;;;;;38.63;15.30;;;1.10;74.40;;;;;;5054689;28;20485;-81
2022/03/05 03:47:38;;;;;;;38.77;15.67;;;1.00;75.10;;;;;;5054679;28;20063;-81
2022/03/05 03:50:05;;;;;;;38.30;15.10;;;1.00;74.50;;;;;;5054675;28;20036;-81
2022/03/05 03:52:31;;;;;;;40.07;16.33;;;1.00;74.50;;;;;;5054379;28;20481;-81
2022/03/05 03:54:57;;;;;;;39.40;15.07;;;1.00;74.50;;;;;;5054594;28;20029;-81
2022/03/05 03:57:23;;;;;;;41.60;15.50;;;1.00;74.50;;;;;;5038007;28;20017;-81
2022/03/05 03:59:51;;;;;;;37.27;14.37;;;0.90;75.40;;;;;;5055811;28;20033;-81
2022/03/05 04:02:19;;;;;;;39.10;15.43;;;0.90;74.90;;;;;;5023913;28;20041;-81
2022/03/05 04:04:45;;;;;;;34.40;13.63;;;0.90;75.30;;;;;;5035784;28;20032;-81
2022/03/05 04:09:55;;;;;;;35.40;14.73;;;0.90;75.40;;;;;;5042376;28;20550;-81
2022/03/05 04:12:21;;;;;;;38.23;14.43;;;0.90;75.30;;;;;;5053922;28;20033;-81
2022/03/05 04:14:47;;;;;;;39.40;15.77;;;0.80;75.50;;;;;;5037767;28;20025;-81
2022/03/05 04:17:13;;;;;;;38.30;15.67;;;0.80;75.30;;;;;;5054188;28;20043;-81
2022/03/05 04:19:39;;;;;;;42.03;15.57;;;0.80;76.10;;;;;;5033956;28;20061;-80
2022/03/05 04:22:05;;;;;;;36.97;16.00;;;0.80;76.10;;;;;;5034112;28;20076;-81
2022/03/05 04:24:31;;;;;;;38.17;16.50;;;0.80;75.90;;;;;;5035560;28;20038;-81
2022/03/05 04:26:56;;;;;;;40.00;15.00;;;0.80;75.70;;;;;;5034939;28;20032;-81
2022/03/05 04:29:22;;;;;;;37.47;13.90;;;0.80;75.60;;;;;;5034175;28;20018;-81
2022/03/05 04:31:48;;;;;;;38.03;15.97;;;0.70;75.60;;;;;;5035286;28;20086;-81
2022/03/05 04:34:14;;;;;;;39.77;15.93;;;0.70;75.80;;;;;;5035452;28;20386;-81
2022/03/05 04:36:40;;;;;;;42.53;15.17;;;0.70;76.50;;;;;;5035156;28;20116;-81
2022/03/05 04:39:06;;;;;;;38.93;15.33;;;0.70;75.80;;;;;;5036992;28;20095;-81
2022/03/05 04:41:31;;;;;;;39.07;15.60;;;0.70;75.90;;;;;;5036987;28;20110;-81
2022/03/05 04:43:57;;;;;;;38.00;14.23;;;0.70;76.00;;;;;;5054906;28;20083;-81
2022/03/05 04:46:23;;;;;;;38.33;14.47;;;0.60;76.10;;;;;;5053444;28;20057;-81
2022/03/05 04:48:48;;;;;;;38.10;15.30;;;0.60;76.20;;;;;;5052694;28;20457;-81
2022/03/05 04:51:14;;;;;;;40.00;15.33;;;0.50;76.20;;;;;;5033814;28;20041;-82
2022/03/05 04:53:39;;;;;;;33.87;14.73;;;0.60;76.60;;;;;;5034930;28;20041;-81
2022/03/05 04:56:05;;;;;;;37.87;14.80;;;0.60;76.90;;;;;;5033470;28;20053;-81
2022/03/05 04:58:31;;;;;;;37.43;14.60;;;0.60;77.00;;;;;;5034745;28;20492;-81
2022/03/05 05:00:56;;;;;;;40.90;14.83;;;0.60;76.70;;;;;;5036797;28;20036;-80
2022/03/05 05:03:22;;;;;;;43.40;16.07;;;0.60;76.80;;;;;;5054491;28;20025;-82
2022/03/05 05:05:48;;;;;;;34.40;13.50;;;0.60;76.70;;;;;;5053332;28;20033;-81
2022/03/05 05:08:13;;;;;;;38.57;15.40;;;0.60;76.80;;;;;;5054534;28;20131;-81
2022/03/05 05:10:39;;;;;;;44.83;15.30;;;0.50;77.00;;;;;;5034762;28;20394;-81
2022/03/05 05:13:05;;;;;;;37.17;15.40;;;0.50;76.80;;;;;;5034527;28;20029;-81
2022/03/05 05:15:31;;;;;;;34.50;14.30;;;0.50;77.10;;;;;;5034409;28;20037;-81
2022/03/05 05:17:59;;;;;;;37.13;14.70;;;0.50;77.70;;;;;;5032939;28;20030;-81
2022/03/05 05:20:25;;;;;;;39.10;15.10;;;0.50;77.20;;;;;;5051108;28;20033;-81
2022/03/05 05:22:51;;;;;;;38.27;13.80;;;0.50;77.10;;;;;;5054068;28;20451;-81
2022/03/05 05:25:17;;;;;;;38.43;14.53;;;0.50;77.20;;;;;;5036296;28;20314;-81
2022/03/05 05:27:43;;;;;;;39.20;14.03;;;0.40;77.20;;;;;;5036231;28;20025;-81
2022/03/05 05:30:09;;;;;;;38.83;14.33;;;0.40;77.10;;;;;;5035116;28;20030;-81
2022/03/05 05:32:35;;;;;;;38.23;14.20;;;0.40;77.20;;;;;;5033990;28;20033;-81
2022/03/05 05:35:01;;;;;;;36.57;14.20;;;0.40;77.30;;;;;;5033911;28;20393;-81
2022/03/05 05:37:27;;;;;;;43.50;14.97;;;0.40;77.50;;;;;;5032779;28;20041;-81
2022/03/05 05:39:52;;;;;;;39.50;15.77;;;0.40;77.80;;;;;;5031970;28;20402;-81
2022/03/05 05:42:18;;;;;;;35.80;13.63;;;0.40;77.80;;;;;;5033880;28;20108;-81
2022/03/05 05:44:44;;;;;;;36.53;15.17;;;0.40;77.80;;;;;;5032750;28;20043;-80
2022/03/05 05:47:10;;;;;;;38.47;15.37;;;0.40;77.50;;;;;;5032727;28;20042;-81
2022/03/05 05:49:36;;;;;;;36.43;14.17;;;0.40;77.70;;;;;;5033734;28;20041;-81
2022/03/05 05:52:03;;;;;;;38.90;14.37;;;0.40;77.60;;;;;;5033737;28;20501;-81
2022/03/05 05:54:29;;;;;;;39.87;16.43;;;0.40;77.50;;;;;;5032461;28;20339;-81
2022/03/05 05:56:55;;;;;;;42.13;16.20;;;0.30;77.60;;;;;;5033688;28;20494;-81
2022/03/05 05:59:21;;;;;;;35.10;14.03;;;0.30;77.60;;;;;;5041600;28;20036;-81
2022/03/05 06:01:46;;;;;;;42.40;14.87;;;0.30;77.60;;;;;;5053550;28;20500;-81
2022/03/05 06:04:12;;;;;;;42.80;14.40;;;0.30;77.60;;;;;;5053448;28;20083;-81
2022/03/05 06:06:37;;;;;;;40.63;14.93;;;0.30;77.70;;;;;;5052355;28;20040;-81
2022/03/05 06:09:03;;;;;;;39.87;14.17;;;0.30;77.80;;;;;;5050461;28;20504;-81
2022/03/05 06:11:30;;;;;;;39.60;14.70;;;0.30;77.90;;;;;;5052169;28;20040;-80
2022/03/05 06:13:56;;;;;;;35.73;13.60;;;0.30;78.10;;;;;;5053430;28;20029;-81
2022/03/05 06:16:21;;;;;;;39.47;14.30;;;0.20;78.00;;;;;;5052066;28;20763;-81
2022/03/05 06:18:47;;;;;;;36.83;14.07;;;0.20;78.10;;;;;;5048564;28;20332;-81
2022/03/05 06:21:13;;;;;;;39.93;15.67;;;0.20;78.10;;;;;;5032096;28;20460;-81
2022/03/05 06:23:39;;;;;;;39.80;15.23;;;0.20;78.20;;;;;;5033325;28;20183;-80
2022/03/05 06:26:06;;;;;;;37.93;15.03;;;0.20;78.30;;;;;;5033342;28;20288;-80
2022/03/05 06:28:33;;;;;;;45.33;16.37;;;0.20;78.30;;;;;;5033967;28;20315;-81
2022/03/05 06:30:58;;;;;;;34.83;13.87;;;0.20;78.40;;;;;;5051676;28;20469;-81
2022/03/05 06:33:24;;;;;;;39.13;15.20;;;0.20;78.50;;;;;;5051905;28;20275;-81
2022/03/05 06:35:50;;;;;;;37.97;14.77;;;0.20;78.60;;;;;;5039378;28;20037;-80
2022/03/05 06:38:16;;;;;;;42.60;16.03;;;0.20;78.80;;;;;;5031533;28;20036;-81
2022/03/05 06:40:41;;;;;;;42.27;15.30;;;0.20;78.90;;;;;;5031172;28;20068;-81
2022/03/05 06:43:07;;;;;;;39.27;15.17;;;0.20;78.80;;;;;;5039649;28;20584;-81
2022/03/05 06:45:33;;;;;;;38.10;13.97;;;0.20;78.90;;;;;;5021884;28;21187;-81
2022/03/05 06:47:58;;;;;;;36.10;15.63;;;0.20;78.90;;;;;;5041657;28;20025;-81
2022/03/05 06:50:24;;;;;;;48.47;17.20;;;0.20;79.10;;;;;;5032110;28;20032;-80
2022/03/05 06:52:50;;;;;;;37.27;14.13;;;0.20;79.80;;;;;;5034644;28;20029;-80
2022/03/05 06:55:16;;;;;;;37.23;14.60;;;0.30;79.30;;;;;;5037196;28;20557;-80
2022/03/05 06:57:43;;;;;;;39.13;14.30;;;0.30;79.30;;;;;;5035829;28;20044;-80
2022/03/05 07:00:11;;;;;;;39.33;14.70;;;0.30;79.40;;;;;;5055337;28;20302;-80
2022/03/05 07:02:36;;;;;;;42.20;15.53;;;0.40;79.40;;;;;;5055758;28;20116;-80
2022/03/05 07:05:02;;;;;;;41.10;15.00;;;0.40;79.40;;;;;;5038903;28;20056;-80
2022/03/05 07:07:28;;;;;;;41.87;15.97;;;0.40;79.40;;;;;;5055359;28;20079;-80
2022/03/05 07:09:54;;;;;;;40.37;15.83;;;0.50;79.40;;;;;;5056599;28;20075;-80
2022/03/05 07:12:19;;;;;;;43.27;16.60;;;0.50;79.40;;;;;;5043047;28;20371;-80
2022/03/05 07:14:48;;;;;;;38.33;14.57;;;0.50;79.50;;;;;;5043358;28;20033;-80
2022/03/05 07:17:15;;;;;;;39.43;16.47;;;0.60;79.40;;;;;;5055393;28;20418;-80
2022/03/05 07:19:41;;;;;;;42.07;15.47;;;0.60;79.50;;;;;;5055656;28;20036;-80
2022/03/05 07:22:06;;;;;;;38.40;15.00;;;0.70;79.50;;;;;;5044938;28;20091;-80
2022/03/05 07:24:32;;;;;;;42.87;15.67;;;0.70;79.50;;;;;;5035343;28;20112;-80
2022/03/05 07:26:58;;;;;;;39.00;16.50;;;0.70;79.70;;;;;;5036605;28;20112;-81
2022/03/05 07:29:23;;;;;;;43.50;16.30;;;0.70;79.70;;;;;;5035674;28;20045;-80
2022/03/05 07:31:49;;;;;;;40.47;15.67;;;0.80;79.60;;;;;;5036616;28;20026;-80
2022/03/05 07:34:15;;;;;;;44.63;15.93;;;0.80;79.60;;;;;;5038824;28;20119;-80
2022/03/05 07:36:40;;;;;;;38.43;15.83;;;0.90;79.60;;;;;;5040229;28;20044;-80
2022/03/05 07:39:07;;;;;;;40.03;15.87;;;0.90;79.80;;;;;;5036463;28;20040;-80
2022/03/05 07:41:34;;;;;;;43.10;16.73;;;1.00;79.60;;;;;;5042826;28;20496;-80
2022/03/05 07:44:00;;;;;;;42.97;19.43;;;1.00;79.50;;;;;;5053815;28;20021;-80
2022/03/05 07:46:26;;;;;;;44.03;18.13;;;1.10;79.60;;;;;;5048932;28;20059;-80
2022/03/05 07:48:51;;;;;;;38.77;15.93;;;1.10;79.50;;;;;;5042065;28;20083;-80
2022/03/05 07:51:17;;;;;;;41.13;16.40;;;1.10;79.50;;;;;;5041807;28;20025;-80
2022/03/05 07:53:43;;;;;;;40.43;17.03;;;1.20;79.60;;;;;;5044879;28;20056;-80
2022/03/05 07:56:10;;;;;;;41.67;16.90;;;1.20;79.90;;;;;;5024328;28;20128;-80
2022/03/05 07:58:35;;;;;;;40.30;15.77;;;1.30;79.80;;;;;;5034678;28;20025;-80
2022/03/05 08:01:01;;;;;;;43.13;17.90;;;1.30;79.70;;;;;;5035649;28;20034;-80
2022/03/05 08:03:27;;;;;;;42.40;17.47;;;1.40;79.70;;;;;;5034428;28;20505;-79
2022/03/05 08:05:53;;;;;;;40.77;16.80;;;1.40;79.60;;;;;;5035789;28;20107;-80
2022/03/05 08:08:19;;;;;;;42.80;16.53;;;1.50;79.60;;;;;;5034749;28;20053;-80
2022/03/05 08:10:44;;;;;;;40.23;16.50;;;1.50;79.90;;;;;;5035958;28;20049;-79
2022/03/05 08:13:11;;;;;;;41.73;15.70;;;1.60;79.90;;;;;;5040892;28;20024;-80
2022/03/05 08:15:36;;;;;;;43.30;16.13;;;1.70;79.80;;;;;;5056135;28;20059;-80
2022/03/05 08:18:02;;;;;;;41.57;17.17;;;1.70;79.70;;;;;;5068168;28;20024;-82
2022/03/05 08:20:30;;;;;;;37.30;17.33;;;1.80;79.70;;;;;;5053755;28;20099;-81
2022/03/05 08:22:56;;;;;;;40.67;16.90;;;1.80;79.60;;;;;;5034179;28;20021;-80
2022/03/05 08:25:22;;;;;;;40.30;16.67;;;1.90;79.60;;;;;;5035088;28;20033;-80
2022/03/05 08:27:48;;;;;;;39.77;16.33;;;1.90;79.50;;;;;;5036110;28;20028;-80
2022/03/05 08:30:15;;;;;;;41.77;16.73;;;2.00;79.50;;;;;;5035557;28;20101;-80
2022/03/05 08:32:41;;;;;;;41.83;15.70;;;2.10;79.40;;;;;;5025080;28;20080;-80
2022/03/05 08:35:08;;;;;;;44.23;17.57;;;2.10;79.30;;;;;;5036690;28;20065;-81
2022/03/05 08:37:34;;;;;;;40.60;16.40;;;2.20;79.40;;;;;;5034163;28;20033;-81
2022/03/05 08:40:00;;;;;;;40.23;15.37;;;2.20;79.20;;;;;;5034088;28;20119;-80
2022/03/05 08:42:25;;;;;;;40.13;16.63;;;2.30;79.20;;;;;;5035179;28;20481;-80
2022/03/05 08:44:51;;;;;;;37.10;15.80;;;2.40;79.20;;;;;;5046125;28;20086;-80
2022/03/05 08:47:17;;;;;;;39.83;15.47;;;2.40;79.00;;;;;;5055022;28;20087;-80
2022/03/05 08:49:42;;;;;;;43.67;17.63;;;2.50;78.90;;;;;;5053898;28;20393;-81
2022/03/05 08:52:08;;;;;;;38.97;16.17;;;2.60;78.90;;;;;;5055154;28;20029;-80
2022/03/05 08:54:35;;;;;;;44.00;17.00;;;2.60;78.60;;;;;;5053705;28;20028;-79
2022/03/05 08:57:01;;;;;;;40.60;16.13;;;2.70;78.60;;;;;;5033474;28;20025;-80
2022/03/05 08:59:26;;;;;;;37.93;17.33;;;2.80;78.60;;;;;;5033729;28;20025;-80
2022/03/05 09:01:52;;;;;;;45.17;18.07;;;2.80;78.40;;;;;;5033660;28;20104;-80
2022/03/05 09:04:18;;;;;;;42.83;18.20;;;2.90;78.40;;;;;;5017057;28;20032;-80
2022/03/05 09:06:44;;;;;;;38.23;16.93;;;2.90;78.20;;;;;;5033613;28;20029;-79
2022/03/05 09:09:10;;;;;;;41.80;17.77;;;3.00;78.10;;;;;;5034781;28;20121;-79
2022/03/05 09:11:37;;;;;;;43.63;18.57;;;3.10;78.10;;;;;;5023851;28;20099;-81
2022/03/05 09:14:04;;;;;;;45.63;18.37;;;3.20;78.00;;;;;;5041586;28;20496;-79
2022/03/05 09:16:31;;;;;;;40.87;18.13;;;3.30;77.90;;;;;;5042203;28;20474;-81
2022/03/05 09:18:57;;;;;;;45.50;18.00;;;3.40;77.70;;;;;;5043052;28;20524;-80
2022/03/05 09:21:23;;;;;;;44.40;18.97;;;3.40;77.50;;;;;;5011489;28;20116;-80
2022/03/05 09:23:48;;;;;;;40.63;17.80;;;3.50;77.50;;;;;;5041727;28;20017;-80
2022/03/05 09:26:15;;;;;;;40.77;18.67;;;3.60;77.40;;;;;;5044041;28;20033;-81
2022/03/05 09:28:41;;;;;;;39.73;17.77;;;3.70;77.30;;;;;;5044573;28;20030;-80
2022/03/05 09:31:06;;;;;;;41.10;16.93;;;3.80;77.20;;;;;;5042674;28;20428;-81
2022/03/05 09:33:32;;;;;;;45.13;18.77;;;3.90;77.00;;;;;;5044111;28;20036;-79
2022/03/05 09:35:57;;;;;;;41.17;18.90;;;4.00;76.90;;;;;;5042993;28;20091;-80
2022/03/05 09:38:23;;;;;;;41.93;18.67;;;4.00;76.80;;;;;;5043955;28;20068;-79
2022/03/05 09:40:49;;;;;;;44.20;17.83;;;4.20;76.80;;;;;;5040448;28;20546;-80
2022/03/05 09:43:18;;;;;;;40.07;18.30;;;4.30;76.70;;;;;;5032471;28;20473;-79
2022/03/05 09:45:44;;;;;;;46.40;19.30;;;4.40;76.60;;;;;;5033921;28;20045;-80
2022/03/05 09:48:12;;;;;;;39.67;19.33;;;4.40;76.50;;;;;;5016889;28;20022;-80
2022/03/05 09:50:37;;;;;;;46.17;21.73;;;4.50;76.20;;;;;;5034029;28;20378;-79
2022/03/05 09:53:03;;;;;;;48.37;20.03;;;4.60;75.90;;;;;;5033868;28;20033;-80
2022/03/05 09:55:30;;;;;;;41.20;20.70;;;4.60;75.70;;;;;;5032486;28;20029;-79
2022/03/05 09:57:55;;;;;;;43.43;19.67;;;4.70;75.70;;;;;;5032498;28;20032;-79
2022/03/05 10:00:21;;;;;;;42.47;19.17;;;4.90;75.70;;;;;;5033704;28;20030;-78
2022/03/05 10:02:48;;;;;;;45.77;18.97;;;5.10;75.80;;;;;;5032539;28;20413;-79
2022/03/05 10:05:26;;;;;;;49.43;21.33;;;5.20;75.70;;;;;;5032497;28;20028;-79
2022/03/05 10:08:00;;;;;;;47.43;19.60;;;5.50;76.10;;;;;;5033694;28;20033;-78
2022/03/05 10:10:26;;;;;;;39.33;17.98;;;5.90;75.30;;;;;;5032295;28;20095;-79
2022/03/05 10:12:52;;;;;;;38.23;18.27;;;6.20;75.20;;;;;;5016003;28;20163;-80
2022/03/05 10:15:18;;;;;;;36.93;19.00;;;6.70;75.40;;;;;;5032310;28;20124;-80
2022/03/05 10:17:52;;;;;;;37.70;18.53;;;7.20;75.90;;;;;;5015763;28;20025;-79
2022/03/05 10:20:18;;;;;;;;;;;7.90;76.40;;;;;;5034211;28;20071;-79
2022/03/05 10:22:55;;;;;;;30.77;15.93;;;8.60;76.50;;;;;;5033416;28;20296;-80
2022/03/05 10:25:45;;;;;;;26.08;14.20;;;9.50;76.50;;;;;;5032668;28;20373;-80
2022/03/05 10:28:24;;;;;;;30.05;16.02;;;10.40;76.50;;;;;;5033616;28;20080;-80
2022/03/05 10:30:52;;;;;;;27.10;15.27;;;11.30;76.20;;;;;;5032125;28;20021;-79
2022/03/05 10:33:29;;;;;;;26.30;14.80;;;12.20;74.20;;;;;;5033088;28;20128;-79
2022/03/05 10:35:55;;;;;;;28.58;15.73;;;13.00;71.30;;;;;;5033179;28;20544;-79
2022/03/05 10:38:21;;;;;;;25.05;16.10;;;13.80;70.20;;;;;;5041110;28;20385;-82
2022/03/05 10:40:56;;;;;;;24.67;14.98;;;14.50;67.60;;;;;;5046673;28;20029;-81
2022/03/05 10:43:23;;;;;;;27.08;16.58;;;15.10;64.30;;;;;;5043709;28;20110;-81
2022/03/05 10:45:58;;;;;;;27.98;17.27;;;15.70;63.20;;;;;;5036386;28;20041;-80
2022/03/05 10:48:36;;;;;;;27.75;16.65;;;16.30;59.90;;;;;;5038462;28;20030;-81
2022/03/05 10:51:03;;;;;;;28.45;17.60;;;16.90;57.50;;;;;;5031681;28;20021;-81
2022/03/05 10:53:42;;;;;;;24.25;16.25;;;17.30;57.20;;;;;;5048191;28;20111;-80
2022/03/05 10:56:33;;;;;;;25.60;16.13;;;17.80;54.00;;;;;;5045971;28;20025;-76
2022/03/05 10:59:04;;;;;;;25.77;17.15;;;18.30;52.30;;;;;;5041246;28;20072;-75
2022/03/05 11:01:31;;;;;;;24.20;16.20;;;18.70;52.20;;;;;;5034832;28;20052;-79
2022/03/05 11:03:57;;;;;;;20.63;14.73;;;19.00;50.30;;;;;;5034216;28;20083;-76
2022/03/05 11:06:24;;;;;;;26.55;17.27;;;19.40;49.10;;;;;;5045966;28;20373;-75
2022/03/05 11:08:51;;;;;;;22.98;16.92;;;19.80;47.90;;;;;;5042143;28;20030;-75
2022/03/05 11:11:19;;;;;;;23.05;16.05;;;20.10;46.30;;;;;;5050290;28;20025;-76
2022/03/05 11:13:45;;;;;;;24.60;15.65;;;20.20;45.30;;;;;;5047571;28;20037;-75
2022/03/05 11:16:12;;;;;;;24.42;17.90;;;20.40;44.70;;;;;;5040827;28;20033;-75
2022/03/05 11:18:41;;;;;;;27.10;17.55;;;20.70;43.80;;;;;;5048970;28;20033;-75
2022/03/05 11:21:10;;;;;;;27.23;19.63;;;21.00;42.50;;;;;;5057625;28;20032;-75
2022/03/05 11:23:37;;;;;;;25.05;17.02;;;21.30;41.50;;;;;;5050441;28;20045;-76
2022/03/05 11:26:07;;;;;;;25.30;16.33;;;21.50;40.70;;;;;;5038309;28;20052;-76
2022/03/05 11:28:37;;;;;;;23.25;16.63;;;21.60;40.40;;;;;;5039262;28;20029;-75
2022/03/05 11:31:15;;;;;;;23.42;17.08;;;21.90;39.60;;;;;;5042582;28;20056;-76
2022/03/05 11:33:43;;;;;;;24.20;16.98;;;22.10;38.80;;;;;;5048921;28;20029;-76
2022/03/05 11:36:26;;;;;;;20.77;15.68;;;22.30;38.40;;;;;;5046118;28;20068;-74
2022/03/05 11:39:05;;;;;;;21.17;16.05;;;22.50;37.60;;;;;;5056111;28;20370;-75
2022/03/05 11:41:31;;;;;;;21.70;16.10;;;22.70;37.20;;;;;;5051762;28;20028;-75
2022/03/05 11:44:12;;;;;;;21.80;16.80;;;22.80;37.10;;;;;;5037414;28;20033;-74
2022/03/05 11:46:38;;;;;;;21.77;16.55;;;23.00;36.10;;;;;;5036159;28;20080;-75
2022/03/05 11:49:07;;;;;;;23.02;16.52;;;23.20;36.00;;;;;;5037054;28;20481;-75
2022/03/05 11:51:33;;;;;;;21.75;16.52;;;23.40;35.70;;;;;;5048011;28;20029;-74
2022/03/05 11:54:12;;;;;;;22.77;16.40;;;23.50;35.50;;;;;;5053130;28;20036;-74
2022/03/05 11:56:38;;;;;;;23.30;15.93;;;23.70;34.50;;;;;;5053085;28;20033;-75
2022/03/05 11:59:32;;;;;;;20.40;15.80;;;23.90;34.70;;;;;;5045599;28;20420;-75
2022/03/05 12:01:58;;;;;;;22.60;16.08;;;24.00;34.00;;;;;;5036201;28;20047;-75
2022/03/05 12:04:28;;;;;;;22.40;17.27;;;24.10;34.20;;;;;;5034636;28;20120;-75
2022/03/05 12:07:04;;;;;;;20.83;15.77;;;24.20;34.00;;;;;;5036590;28;20100;-76
2022/03/05 12:09:32;;;;;;;20.52;15.80;;;24.20;34.20;;;;;;5035622;28;20113;-76
2022/03/05 12:11:59;;;;;;;22.42;15.10;;;24.30;33.60;;;;;;5058861;28;20025;-77
2022/03/05 12:15:00;;;;;;;23.25;17.08;;;24.50;33.30;;;;;;5052360;28;20025;-76
2022/03/05 12:17:31;;;;;;;20.65;15.23;;;24.70;32.40;;;;;;5035785;28;20025;-76
2022/03/05 12:19:57;;;;;;;20.63;16.08;;;24.80;32.50;;;;;;5034668;28;20122;-77
2022/03/05 12:22:22;;;;;;;21.08;15.98;;;25.00;32.30;;;;;;5038298;28;20060;-76
2022/03/05 12:24:48;;;;;;;21.35;15.75;;;25.20;32.30;;;;;;5047418;28;20040;-76
2022/03/05 12:27:16;;;;;;;20.23;15.35;;;25.30;32.00;;;;;;5034981;28;20092;-76
2022/03/05 12:29:49;;;;;;;20.98;15.30;;;25.40;31.90;;;;;;5037049;28;20462;-77
2022/03/05 12:32:15;;;;;;;;;;;25.50;31.70;;;;;;5035181;28;20111;-76
2022/03/05 12:34:41;;;;;;;19.27;13.73;;;25.70;32.10;;;;;;5039401;28;19904;-76
2022/03/05 12:37:07;;;;;;;19.52;15.45;;;25.80;32.30;;;;;;5054252;28;20060;-76